Time;durP1;ratioP1;P1;durP2;ratioP2;P2;SDS_P1;SDS_P2;PMS_P1;PMS_P2;Temp;Humidity;BMP_temperature;BMP_pressure;BME280_temperature;BME280_humidity;BME280_pressure;Samples;Min_cycle;Max_cycle;Signal;HPM_P1;HPM_P2
2023/03/17 00:01:50;;;;;;;;;;;;;;;0.79;63.86;100404.13;5115760;28;19920;-63
2023/03/17 00:04:19;;;;;;;;;;;;;;;0.77;63.85;100405.69;5116066;28;19967;-63
2023/03/17 00:06:47;;;;;;;;;;;;;;;0.68;63.86;100413.63;5115989;28;19998;-63
2023/03/17 00:09:17;;;;;;;;;;;;;;;0.65;64.14;100405.06;5115868;28;19920;-63
2023/03/17 00:11:47;;;;;;;;;;;;;;;0.66;64.58;100409.31;5116515;28;20018;-63
2023/03/17 00:14:16;;;;;;;;;;;;;;;0.73;64.04;100413.88;5115537;28;19919;-63
2023/03/17 00:16:48;;;;;;;;;;;;;;;0.75;64.59;100402.25;5115851;28;19955;-63
2023/03/17 00:19:18;;;;;;;;;;;;;;;0.76;64.01;100414.03;5115321;28;19934;-63
2023/03/17 00:21:46;;;;;;;;;;;;;;;0.80;64.28;100408.34;5115404;28;20357;-63
2023/03/17 00:24:16;;;;;;;;;;;;;;;0.79;64.11;100401.63;5115218;28;19926;-63
2023/03/17 00:26:45;;;;;;;;;;;;;;;0.81;63.76;100407.59;5115561;28;20389;-63
2023/03/17 00:29:15;;;;;;;;;;;;;;;0.81;64.19;100407.59;5113956;28;19930;-63
2023/03/17 00:31:45;;;;;;;;;;;;;;;0.78;64.27;100409.94;5115506;27;19985;-64
2023/03/17 00:34:17;;;;;;;;;;;;;;;0.80;64.50;100405.84;5114031;28;20365;-64
2023/03/17 00:36:48;;;;;;;;;;;;;;;0.77;64.38;100408.19;5114657;28;20307;-64
2023/03/17 00:39:17;;;;;;;;;;;;;;;0.70;64.00;100410.34;5113785;28;19926;-63
2023/03/17 00:41:46;;;;;;;;;;;;;;;0.75;63.95;100412.28;5114173;28;19920;-63
2023/03/17 00:44:17;;;;;;;;;;;;;;;0.75;63.98;100411.41;5114022;28;19943;-63
2023/03/17 00:46:47;;;;;;;;;;;;;;;0.77;64.06;100402.34;5115536;28;20254;-63
2023/03/17 00:49:17;;;;;;;;;;;;;;;0.76;64.14;100409.00;5114839;28;19923;-63
2023/03/17 00:51:46;;;;;;;;;;;;;;;0.74;63.86;100405.56;5113757;28;19924;-64
2023/03/17 00:54:15;;;;;;;;;;;;;;;0.74;64.12;100395.50;5113937;28;19919;-64
2023/03/17 00:56:44;;;;;;;;;;;;;;;0.71;63.95;100400.38;5115101;28;19961;-64
2023/03/17 00:59:18;;;;;;;;;;;;;;;0.73;63.87;100403.81;5114620;28;19967;-63
2023/03/17 01:01:48;;;;;;;;;;;;;;;0.73;63.96;100398.78;5115055;28;20289;-64
2023/03/17 01:04:17;;;;;;;;;;;;;;;0.65;64.18;100400.91;5114562;28;19920;-64
2023/03/17 01:06:46;;;;;;;;;;;;;;;0.61;64.19;100411.63;5114947;28;19978;-64
2023/03/17 01:09:15;;;;;;;;;;;;;;;0.61;64.45;100419.16;5114828;27;20258;-64
2023/03/17 01:11:44;;;;;;;;;;;;;;;0.66;64.34;100416.84;5114534;28;19930;-64
2023/03/17 01:14:14;;;;;;;;;;;;;;;0.68;64.11;100412.78;5114553;28;19920;-64
2023/03/17 01:16:43;;;;;;;;;;;;;;;0.67;64.27;100418.59;5114535;28;19929;-64
2023/03/17 01:19:13;;;;;;;;;;;;;;;0.68;64.74;100425.31;5114252;28;19920;-63
2023/03/17 01:21:43;;;;;;;;;;;;;;;0.62;64.51;100415.00;5114884;28;19928;-63
2023/03/17 01:24:11;;;;;;;;;;;;;;;0.64;64.05;100423.47;5114675;28;19941;-63
2023/03/17 01:26:40;;;;;;;;;;;;;;;0.62;64.63;100420.00;5114386;28;20462;-63
2023/03/17 01:29:08;;;;;;;;;;;;;;;0.63;64.37;100421.72;5114357;28;19919;-63
2023/03/17 01:31:38;;;;;;;;;;;;;;;0.57;64.90;100416.41;5113110;28;19923;-63
2023/03/17 01:34:06;;;;;;;;;;;;;;;0.60;64.41;100422.44;5113473;28;19981;-63
2023/03/17 01:36:36;;;;;;;;;;;;;;;0.59;64.49;100420.72;5114653;28;19927;-64
2023/03/17 01:39:06;;;;;;;;;;;;;;;0.53;64.41;100429.56;5114303;28;19920;-64
2023/03/17 01:41:38;;;;;;;;;;;;;;;0.50;64.58;100426.94;5113092;28;19919;-63
2023/03/17 01:44:11;;;;;;;;;;;;;;;0.52;64.60;100432.88;5114225;28;19920;-64
2023/03/17 01:46:40;;;;;;;;;;;;;;;0.49;64.61;100433.59;5114742;28;19973;-64
2023/03/17 01:49:16;;;;;;;;;;;;;;;0.40;64.97;100437.28;5118395;28;19919;-64
2023/03/17 01:51:51;;;;;;;;;;;;;;;0.42;64.64;100426.53;5118333;28;19946;-63
2023/03/17 01:54:23;;;;;;;;;;;;;;;0.40;64.97;100433.13;5118600;28;20289;-64
2023/03/17 01:56:52;;;;;;;;;;;;;;;0.36;65.06;100435.41;5118285;28;19919;-64
2023/03/17 01:59:24;;;;;;;;;;;;;;;0.30;65.36;100430.06;5117017;28;19919;-64
2023/03/17 02:01:58;;;;;;;;;;;;;;;0.29;65.25;100419.16;5118416;28;19920;-63
2023/03/17 02:04:27;;;;;;;;;;;;;;;0.29;65.16;100433.38;5118068;28;20370;-64
2023/03/17 02:06:57;;;;;;;;;;;;;;;0.19;65.37;100436.19;5118024;28;19920;-64
2023/03/17 02:09:28;;;;;;;;;;;;;;;0.15;65.74;100439.28;5118002;28;20360;-64
2023/03/17 02:11:58;;;;;;;;;;;;;;;0.16;65.58;100425.97;5116627;28;19969;-63
2023/03/17 02:14:27;;;;;;;;;;;;;;;0.13;65.45;100418.28;5117145;28;19920;-64
2023/03/17 02:16:56;;;;;;;;;;;;;;;0.08;65.95;100417.16;5117086;28;20362;-64
2023/03/17 02:19:24;;;;;;;;;;;;;;;0.07;66.07;100415.47;5117846;28;20357;-64
2023/03/17 02:21:56;;;;;;;;;;;;;;;0.13;65.93;100416.63;5117653;28;19923;-63
2023/03/17 02:24:28;;;;;;;;;;;;;;;0.10;65.76;100420.66;5117971;28;19920;-64
2023/03/17 02:27:01;;;;;;;;;;;;;;;0.10;65.62;100415.63;5117691;28;19919;-64
2023/03/17 02:29:32;;;;;;;;;;;;;;;0.13;65.90;100409.09;5116421;28;19920;-64
2023/03/17 02:32:01;;;;;;;;;;;;;;;0.18;65.88;100406.84;5117560;28;19923;-63
2023/03/17 02:34:30;;;;;;;;;;;;;;;0.12;65.56;100404.84;5117812;28;20343;-63
2023/03/17 02:37:00;;;;;;;;;;;;;;;0.10;65.79;100400.56;5117468;28;19965;-64
2023/03/17 02:39:31;;;;;;;;;;;;;;;0.06;66.07;100398.66;5118157;28;19920;-64
2023/03/17 02:42:00;;;;;;;;;;;;;;;0.06;66.54;100398.66;5117303;28;19927;-64
2023/03/17 02:44:28;;;;;;;;;;;;;;;0.00;66.02;100400.06;5117205;28;19919;-64
2023/03/17 02:46:57;;;;;;;;;;;;;;;0.02;66.19;100391.78;5117250;28;19919;-64
2023/03/17 02:49:26;;;;;;;;;;;;;;;-0.08;65.97;100396.31;5117223;28;19919;-64
2023/03/17 02:51:54;;;;;;;;;;;;;;;-0.04;66.21;100388.16;5117454;28;19970;-64
2023/03/17 02:54:25;;;;;;;;;;;;;;;-0.13;66.05;100401.84;5117131;28;19920;-63
2023/03/17 02:56:53;;;;;;;;;;;;;;;-0.10;66.47;100402.03;5117467;28;19919;-63
2023/03/17 02:59:22;;;;;;;;;;;;;;;-0.14;66.47;100406.00;5116088;28;19969;-63
2023/03/17 03:01:50;;;;;;;;;;;;;;;-0.19;66.43;100399.88;5116958;28;19920;-63
2023/03/17 03:04:19;;;;;;;;;;;;;;;-0.15;66.57;100404.31;5116801;28;19919;-64
2023/03/17 03:06:48;;;;;;;;;;;;;;;-0.07;66.47;100415.59;5116889;28;19926;-64
2023/03/17 03:09:17;;;;;;;;;;;;;;;-0.11;66.20;100411.19;5117184;28;19920;-64
2023/03/17 03:11:47;;;;;;;;;;;;;;;-0.15;66.43;100414.34;5117135;28;19923;-64
2023/03/17 03:14:15;;;;;;;;;;;;;;;-0.10;66.33;100427.94;5116698;28;19973;-64
2023/03/17 03:16:44;;;;;;;;;;;;;;;-0.08;66.40;100421.41;5117340;28;20446;-64
2023/03/17 03:19:12;;;;;;;;;;;;;;;-0.13;66.47;100412.75;5116485;28;19926;-63
2023/03/17 03:21:41;;;;;;;;;;;;;;;-0.15;66.64;100424.38;5116589;28;20432;-63
2023/03/17 03:24:10;;;;;;;;;;;;;;;-0.17;66.45;100425.06;5116789;28;19920;-64
2023/03/17 03:26:38;;;;;;;;;;;;;;;-0.16;66.80;100412.59;5116605;28;20010;-64
2023/03/17 03:29:08;;;;;;;;;;;;;;;-0.17;66.55;100418.38;5116460;28;19949;-64
2023/03/17 03:31:37;;;;;;;;;;;;;;;-0.11;66.54;100415.34;5116406;28;19926;-64
2023/03/17 03:34:06;;;;;;;;;;;;;;;-0.09;66.07;100416.28;5116553;28;20246;-64
2023/03/17 03:36:34;;;;;;;;;;;;;;;-0.08;66.01;100416.38;5116605;28;19962;-64
2023/03/17 03:39:03;;;;;;;;;;;;;;;-0.17;66.20;100410.84;5116246;28;19919;-64
2023/03/17 03:41:32;;;;;;;;;;;;;;;-0.26;66.26;100415.38;5116251;28;19966;-64
2023/03/17 03:44:00;;;;;;;;;;;;;;;-0.24;66.51;100423.84;5116371;28;20346;-64
2023/03/17 03:46:30;;;;;;;;;;;;;;;-0.28;66.53;100421.97;5116113;28;19923;-64
2023/03/17 03:48:59;;;;;;;;;;;;;;;-0.54;66.44;100418.81;5116117;28;19927;-64
2023/03/17 03:51:27;;;;;;;;;;;;;;;-0.76;67.00;100425.16;5116064;28;19924;-64
2023/03/17 03:53:56;;;;;;;;;;;;;;;-0.87;67.29;100422.84;5116154;28;19926;-64
2023/03/17 03:56:24;;;;;;;;;;;;;;;-0.77;67.44;100412.56;5116566;28;19919;-64
2023/03/17 03:58:52;;;;;;;;;;;;;;;-0.83;67.31;100418.09;5116211;28;20398;-64
2023/03/17 04:01:21;;;;;;;;;;;;;;;-0.75;67.70;100411.00;5115809;28;19920;-64
2023/03/17 04:03:51;;;;;;;;;;;;;;;-0.68;67.61;100413.06;5116083;28;20281;-64
2023/03/17 04:06:19;;;;;;;;;;;;;;;-0.63;67.75;100406.66;5115933;28;19973;-64
2023/03/17 04:08:48;;;;;;;;;;;;;;;-0.59;67.73;100403.53;5115672;28;19919;-64
2023/03/17 04:11:16;;;;;;;;;;;;;;;-0.60;67.52;100405.97;5115522;28;19998;-64
2023/03/17 04:13:45;;;;;;;;;;;;;;;-0.62;67.44;100408.38;5115842;28;20018;-64
2023/03/17 04:16:13;;;;;;;;;;;;;;;-0.64;67.86;100414.94;5115692;28;20010;-64
2023/03/17 04:18:42;;;;;;;;;;;;;;;-0.63;67.85;100416.69;5115270;28;19943;-64
2023/03/17 04:21:12;;;;;;;;;;;;;;;-0.55;67.56;100420.47;5115802;28;19919;-64
2023/03/17 04:23:41;;;;;;;;;;;;;;;-0.54;67.44;100411.31;5115457;28;20006;-64
2023/03/17 04:26:10;;;;;;;;;;;;;;;-0.51;67.68;100411.47;5115484;28;19990;-64
2023/03/17 04:28:39;;;;;;;;;;;;;;;-0.54;67.50;100411.31;5115611;28;20377;-64
2023/03/17 04:31:08;;;;;;;;;;;;;;;-0.51;67.45;100407.34;5115184;28;19926;-64
2023/03/17 04:33:37;;;;;;;;;;;;;;;-0.53;67.55;100403.88;5115515;28;19947;-64
2023/03/17 04:36:06;;;;;;;;;;;;;;;-0.62;67.69;100413.38;5114933;28;19927;-64
2023/03/17 04:38:36;;;;;;;;;;;;;;;-0.67;67.41;100419.78;5115069;28;20449;-65
2023/03/17 04:41:06;;;;;;;;;;;;;;;-0.74;67.86;100408.56;5115297;28;20294;-65
2023/03/17 04:43:34;;;;;;;;;;;;;;;-0.72;67.67;100414.53;5114962;28;19920;-64
2023/03/17 04:46:02;;;;;;;;;;;;;;;-0.74;67.77;100423.59;5114867;28;19920;-64
2023/03/17 04:48:31;;;;;;;;;;;;;;;-0.68;67.98;100425.59;5114842;28;19965;-65
2023/03/17 04:51:00;;;;;;;;;;;;;;;-0.70;67.97;100417.97;5115157;28;19926;-64
2023/03/17 04:53:28;;;;;;;;;;;;;;;-0.70;68.01;100422.16;5114739;28;19927;-64
2023/03/17 04:55:58;;;;;;;;;;;;;;;-0.71;67.90;100412.88;5115104;28;19919;-64
2023/03/17 04:58:26;;;;;;;;;;;;;;;-0.78;67.97;100415.84;5114647;28;19942;-65
2023/03/17 05:00:58;;;;;;;;;;;;;;;-0.81;68.32;100415.66;5115093;28;19954;-65
2023/03/17 05:03:28;;;;;;;;;;;;;;;-0.79;68.09;100419.09;5114701;28;19962;-64
2023/03/17 05:05:57;;;;;;;;;;;;;;;-0.86;68.11;100417.91;5114862;28;19920;-65
2023/03/17 05:08:27;;;;;;;;;;;;;;;-0.92;68.42;100416.72;5114780;28;19930;-65
2023/03/17 05:10:56;;;;;;;;;;;;;;;-0.91;68.66;100406.75;5114926;28;19924;-64
2023/03/17 05:13:26;;;;;;;;;;;;;;;-0.88;68.51;100409.44;5114512;28;19920;-64
2023/03/17 05:15:56;;;;;;;;;;;;;;;-0.86;68.73;100412.03;5114611;28;20018;-64
2023/03/17 05:18:25;;;;;;;;;;;;;;;-0.86;68.83;100412.91;5114384;28;19943;-64
2023/03/17 05:20:54;;;;;;;;;;;;;;;-0.85;68.87;100403.75;5114452;28;20422;-64
2023/03/17 05:23:22;;;;;;;;;;;;;;;-0.79;68.48;100406.56;5114049;28;19924;-64
2023/03/17 05:25:51;;;;;;;;;;;;;;;-0.73;69.12;100414.44;5114375;28;19926;-65
2023/03/17 05:28:20;;;;;;;;;;;;;;;-0.67;68.66;100417.28;5114277;28;19926;-64
2023/03/17 05:30:54;;;;;;;;;;;;;;;-0.60;68.56;100411.00;5114373;28;20380;-64
2023/03/17 05:33:23;;;;;;;;;;;;;;;-0.58;68.95;100407.78;5114374;28;19926;-64
2023/03/17 05:35:52;;;;;;;;;;;;;;;-0.55;68.66;100420.47;5114366;28;20297;-63
2023/03/17 05:38:21;;;;;;;;;;;;;;;-0.47;69.09;100414.25;5114293;28;19951;-64
2023/03/17 05:40:49;;;;;;;;;;;;;;;-0.42;68.91;100412.84;5114021;28;19920;-64
2023/03/17 05:43:18;;;;;;;;;;;;;;;-0.35;68.61;100419.91;5114068;28;20418;-64
2023/03/17 05:45:49;;;;;;;;;;;;;;;-0.24;68.72;100426.34;5114462;28;19920;-64
2023/03/17 05:48:19;;;;;;;;;;;;;;;-0.10;68.81;100422.09;5114501;28;20353;-64
2023/03/17 05:50:48;;;;;;;;;;;;;;;-0.06;68.55;100419.81;5114364;28;19965;-64
2023/03/17 05:53:17;;;;;;;;;;;;;;;0.11;68.55;100427.38;5114102;28;20373;-64
2023/03/17 05:55:46;;;;;;;;;;;;;;;0.25;68.20;100426.44;5114081;28;20030;-64
2023/03/17 05:58:15;;;;;;;;;;;;;;;0.39;68.16;100435.53;5114101;28;19920;-63
2023/03/17 06:00:44;;;;;;;;;;;;;;;0.55;67.58;100438.91;5114003;28;19955;-63
2023/03/17 06:03:12;;;;;;;;;;;;;;;0.66;67.81;100437.81;5114410;28;19920;-63
2023/03/17 06:05:42;;;;;;;;;;;;;;;0.71;67.75;100438.06;5114311;28;20285;-63
2023/03/17 06:08:11;;;;;;;;;;;;;;;0.76;67.58;100439.16;5113975;28;19919;-63
2023/03/17 06:10:41;;;;;;;;;;;;;;;0.89;67.27;100436.44;5113871;28;19919;-63
2023/03/17 06:13:09;;;;;;;;;;;;;;;1.08;67.33;100443.25;5113907;28;19926;-63
2023/03/17 06:15:38;;;;;;;;;;;;;;;1.25;67.02;100437.38;5113658;28;19998;-63
2023/03/17 06:18:06;;;;;;;;;;;;;;;1.37;66.51;100444.66;5113764;28;20327;-63
2023/03/17 06:20:35;;;;;;;;;;;;;;;1.49;66.28;100442.72;5114261;28;19927;-63
2023/03/17 06:23:05;;;;;;;;;;;;;;;1.53;65.82;100447.09;5113832;28;19920;-63
2023/03/17 06:25:34;;;;;;;;;;;;;;;1.64;66.11;100448.47;5114017;28;19920;-63
2023/03/17 06:28:04;;;;;;;;;;;;;;;1.72;65.49;100443.00;5114117;28;19988;-63
2023/03/17 06:30:33;;;;;;;;;;;;;;;1.87;65.35;100442.84;5112531;28;19973;-63
2023/03/17 06:33:02;;;;;;;;;;;;;;;1.98;64.67;100451.75;5113955;28;19919;-63
2023/03/17 06:35:31;;;;;;;;;;;;;;;2.14;64.16;100449.13;5116947;28;19919;-63
2023/03/17 06:38:00;;;;;;;;;;;;;;;2.32;63.82;100439.88;5117418;28;19988;-63
2023/03/17 06:40:30;;;;;;;;;;;;;;;2.41;64.23;100440.28;5117265;28;19923;-63
2023/03/17 06:43:00;;;;;;;;;;;;;;;2.62;63.93;100440.31;5117245;28;19972;-63
2023/03/17 06:45:28;;;;;;;;;;;;;;;2.59;63.36;100438.53;5117189;28;19923;-63
2023/03/17 06:47:57;;;;;;;;;;;;;;;2.69;63.54;100437.28;5117043;27;19954;-63
2023/03/17 06:50:26;;;;;;;;;;;;;;;2.85;62.74;100438.78;5117210;28;19927;-63
2023/03/17 06:52:54;;;;;;;;;;;;;;;2.95;62.92;100438.38;5115842;28;19919;-63
2023/03/17 06:55:23;;;;;;;;;;;;;;;3.08;62.14;100441.47;5117059;28;19926;-63
2023/03/17 06:57:53;;;;;;;;;;;;;;;3.27;62.16;100448.09;5117297;28;20014;-63
2023/03/17 07:00:21;;;;;;;;;;;;;;;3.42;61.63;100451.25;5117173;28;20353;-63
2023/03/17 07:02:50;;;;;;;;;;;;;;;3.61;60.91;100448.66;5116928;28;19919;-63
2023/03/17 07:05:18;;;;;;;;;;;;;;;3.74;60.19;100455.88;5117067;28;20323;-63
2023/03/17 07:07:48;;;;;;;;;;;;;;;3.82;60.05;100454.53;5116742;28;19984;-63
2023/03/17 07:10:17;;;;;;;;;;;;;;;3.95;59.65;100455.88;5115816;28;19920;-63
2023/03/17 07:12:45;;;;;;;;;;;;;;;4.15;58.72;100459.16;5116809;28;19919;-63
2023/03/17 07:15:16;;;;;;;;;;;;;;;4.19;58.76;100455.91;5116983;28;20270;-63
2023/03/17 07:17:45;;;;;;;;;;;;;;;4.37;57.67;100466.69;5116605;28;20373;-63
2023/03/17 07:20:14;;;;;;;;;;;;;;;4.40;57.17;100465.13;5116570;28;19924;-63
2023/03/17 07:22:42;;;;;;;;;;;;;;;4.42;57.46;100460.13;5116362;28;20002;-63
2023/03/17 07:25:11;;;;;;;;;;;;;;;4.57;57.50;100460.69;5116764;28;20280;-63
2023/03/17 07:27:40;;;;;;;;;;;;;;;4.63;56.77;100455.88;5115954;28;19951;-63
2023/03/17 07:30:13;;;;;;;;;;;;;;;4.82;56.51;100443.06;5116695;28;19920;-63
2023/03/17 07:32:43;;;;;;;;;;;;;;;5.06;56.46;100443.84;5116748;28;19964;-63
2023/03/17 07:35:13;;;;;;;;;;;;;;;5.20;56.15;100440.13;5116369;28;19919;-63
2023/03/17 07:37:42;;;;;;;;;;;;;;;5.33;55.83;100439.72;5115003;28;19920;-63
2023/03/17 07:40:11;;;;;;;;;;;;;;;5.48;54.91;100443.53;5095654;28;20317;-63
2023/03/17 07:42:40;;;;;;;;;;;;;;;5.74;54.56;100442.66;5095793;28;19927;-63
2023/03/17 07:45:10;;;;;;;;;;;;;;;5.79;53.88;100441.13;5095674;28;19920;-63
2023/03/17 07:47:38;;;;;;;;;;;;;;;5.94;53.08;100436.56;5095605;28;19965;-63
2023/03/17 07:50:09;;;;;;;;;;;;;;;6.17;52.53;100438.09;5095565;28;19929;-63
2023/03/17 07:52:38;;;;;;;;;;;;;;;6.25;52.13;100434.13;5095613;28;19973;-63
2023/03/17 07:55:09;;;;;;;;;;;;;;;6.40;51.87;100438.78;5095541;28;19962;-63
2023/03/17 07:57:38;;;;;;;;;;;;;;;6.46;50.89;100439.78;5095471;28;19935;-63
2023/03/17 08:00:08;;;;;;;;;;;;;;;6.54;50.54;100433.25;5098280;28;19919;-64
2023/03/17 08:02:40;;;;;;;;;;;;;;;6.68;50.27;100437.03;5099614;28;19965;-64
2023/03/17 08:05:10;;;;;;;;;;;;;;;6.91;50.21;100435.06;5097226;28;19924;-63
2023/03/17 08:07:39;;;;;;;;;;;;;;;6.91;49.46;100436.78;5095194;28;19920;-63
2023/03/17 08:10:08;;;;;;;;;;;;;;;7.14;49.23;100438.22;5095190;28;20067;-64
2023/03/17 08:12:37;;;;;;;;;;;;;;;7.36;49.38;100436.25;5094923;28;19920;-63
2023/03/17 08:15:08;;;;;;;;;;;;;;;7.45;48.10;100438.13;5111148;28;20442;-65
2023/03/17 08:17:38;;;;;;;;;;;;;;;7.57;47.82;100433.34;5115207;28;19954;-65
2023/03/17 08:20:08;;;;;;;;;;;;;;;7.72;47.38;100423.56;5115454;28;19919;-64
2023/03/17 08:22:38;;;;;;;;;;;;;;;7.97;46.46;100425.78;5115674;27;20399;-64
2023/03/17 08:25:10;;;;;;;;;;;;;;;8.11;46.10;100424.38;5115324;28;20018;-64
2023/03/17 08:27:40;;;;;;;;;;;;;;;8.31;45.43;100418.88;5114975;28;19959;-64
2023/03/17 08:30:11;;;;;;;;;;;;;;;8.30;44.04;100417.19;5115229;28;20400;-64
2023/03/17 08:32:40;;;;;;;;;;;;;;;8.43;43.81;100406.41;5114935;28;19920;-64
2023/03/17 08:35:10;;;;;;;;;;;;;;;8.43;42.98;100408.97;5115447;28;20355;-64
2023/03/17 08:37:40;;;;;;;;;;;;;;;8.55;42.49;100409.19;5115009;28;19923;-64
2023/03/17 08:40:09;;;;;;;;;;;;;;;8.58;42.03;100404.19;5115084;28;19924;-63
2023/03/17 08:42:38;;;;;;;;;;;;;;;8.61;42.24;100411.88;5114942;28;20482;-64
2023/03/17 08:45:06;;;;;;;;;;;;;;;8.56;41.17;100421.09;5113671;28;20006;-64
2023/03/17 08:47:35;;;;;;;;;;;;;;;8.37;41.30;100421.56;5114625;28;19920;-64
2023/03/17 08:50:04;;;;;;;;;;;;;;;8.42;40.95;100417.44;5114719;28;20366;-63
2023/03/17 08:52:32;;;;;;;;;;;;;;;8.54;41.35;100418.50;5115027;28;19919;-64
2023/03/17 08:55:02;;;;;;;;;;;;;;;8.56;41.59;100416.00;5113535;28;19924;-64
2023/03/17 08:57:31;;;;;;;;;;;;;;;8.46;41.27;100403.94;5113980;28;20396;-63
2023/03/17 08:59:59;;;;;;;;;;;;;;;8.41;40.83;100408.94;5114672;28;19969;-63
2023/03/17 09:02:28;;;;;;;;;;;;;;;8.51;41.90;100405.75;5114754;28;19920;-64
2023/03/17 09:04:56;;;;;;;;;;;;;;;8.60;41.88;100407.59;5113607;28;19920;-63
2023/03/17 09:07:25;;;;;;;;;;;;;;;8.61;40.91;100399.16;5114347;28;20307;-64
2023/03/17 09:09:53;;;;;;;;;;;;;;;8.56;41.23;100403.28;5114687;28;19919;-63
2023/03/17 09:12:23;;;;;;;;;;;;;;;8.65;41.11;100406.00;5114406;28;19931;-63
2023/03/17 09:14:52;;;;;;;;;;;;;;;8.66;40.11;100395.00;5114247;28;19920;-63
2023/03/17 09:17:20;;;;;;;;;;;;;;;8.79;39.93;100404.56;5114216;28;19926;-64
2023/03/17 09:19:49;;;;;;;;;;;;;;;8.79;40.45;100399.47;5114255;28;19963;-64
2023/03/17 09:22:18;;;;;;;;;;;;;;;8.85;40.39;100404.69;5114419;28;20395;-64
2023/03/17 09:24:48;;;;;;;;;;;;;;;8.80;39.63;100401.19;5113777;28;19919;-64
2023/03/17 09:27:16;;;;;;;;;;;;;;;8.77;40.00;100390.97;5113669;28;20018;-64
2023/03/17 09:29:46;;;;;;;;;;;;;;;8.77;39.16;100390.97;5114109;28;19923;-64
2023/03/17 09:32:15;;;;;;;;;;;;;;;9.01;38.78;100391.38;5114865;28;20022;-64
2023/03/17 09:34:43;;;;;;;;;;;;;;;9.05;38.69;100387.19;5114320;28;19919;-64
2023/03/17 09:37:12;;;;;;;;;;;;;;;9.00;39.10;100392.19;5114464;28;20010;-64
2023/03/17 09:39:41;;;;;;;;;;;;;;;9.14;38.86;100388.19;5113860;28;19969;-64
2023/03/17 09:42:17;;;;;;;;;;;;;;;9.18;38.31;100389.97;5114064;28;19923;-64
2023/03/17 09:44:56;;;;;;;;;;;;;;;9.16;38.47;100383.13;5114056;28;19947;-63
2023/03/17 09:47:32;;;;;;;;;;;;;;;9.27;37.86;100381.59;5114090;28;19920;-64
2023/03/17 09:50:03;;;;;;;;;;;;;;;9.38;37.28;100391.13;5114381;28;20328;-63
2023/03/17 09:52:33;;;;;;;;;;;;;;;9.41;37.99;100393.72;5112829;28;19920;-64
2023/03/17 09:55:06;;;;;;;;;;;;;;;9.43;38.19;100381.88;5114447;28;19969;-62
2023/03/17 09:57:36;;;;;;;;;;;;;;;9.40;38.04;100379.28;5114299;28;20277;-62
2023/03/17 10:00:13;;;;;;;;;;;;;;;9.36;37.78;100379.19;5114092;28;19927;-63
2023/03/17 10:02:42;;;;;;;;;;;;;;;9.34;37.69;100376.63;5114209;28;19919;-62
2023/03/17 10:05:14;;;;;;;;;;;;;;;9.46;37.89;100375.97;5113957;28;19926;-64
2023/03/17 10:07:45;;;;;;;;;;;;;;;9.56;37.00;100372.72;5114570;28;20422;-62
2023/03/17 10:10:15;;;;;;;;;;;;;;;9.78;37.50;100373.88;5117992;28;19966;-62
2023/03/17 10:12:50;;;;;;;;;;;;;;;9.88;37.47;100368.06;5118271;28;19973;-62
2023/03/17 10:15:22;;;;;;;;;;;;;;;9.86;37.07;100372.28;5117848;28;20365;-62
2023/03/17 10:17:52;;;;;;;;;;;;;;;9.80;35.98;100362.00;5117447;28;19920;-62
2023/03/17 10:20:24;;;;;;;;;;;;;;;9.94;36.91;100365.59;5117621;28;20015;-62
2023/03/17 10:22:56;;;;;;;;;;;;;;;9.98;36.64;100364.81;5117459;28;19919;-62
2023/03/17 10:25:30;;;;;;;;;;;;;;;10.09;37.32;100353.03;5117549;28;20262;-62
2023/03/17 10:28:02;;;;;;;;;;;;;;;10.22;37.28;100347.25;5117581;28;19959;-64
2023/03/17 10:30:33;;;;;;;;;;;;;;;10.15;37.79;100350.56;5117940;28;20067;-62
2023/03/17 10:33:03;;;;;;;;;;;;;;;10.38;37.54;100359.34;5117366;28;19919;-62
2023/03/17 10:35:34;;;;;;;;;;;;;;;10.32;36.80;100354.16;5117483;28;20456;-62
2023/03/17 10:38:15;;;;;;;;;;;;;;;10.19;37.79;100354.88;5117439;28;19919;-62
2023/03/17 10:40:46;;;;;;;;;;;;;;;10.12;37.70;100355.66;5117781;28;20327;-62
2023/03/17 10:43:19;;;;;;;;;;;;;;;10.16;37.19;100349.75;5117218;28;20002;-62
2023/03/17 10:45:55;;;;;;;;;;;;;;;10.44;37.71;100353.44;5117236;28;19920;-62
2023/03/17 10:48:23;;;;;;;;;;;;;;;10.43;37.32;100347.50;5117126;28;19988;-62
2023/03/17 10:50:52;;;;;;;;;;;;;;;10.44;36.56;100351.75;5117055;28;19920;-62
2023/03/17 10:53:26;;;;;;;;;;;;;;;10.45;36.73;100340.72;5116880;28;20422;-63
2023/03/17 10:55:58;;;;;;;;;;;;;;;10.54;37.13;100328.03;5117495;28;19920;-62
2023/03/17 10:58:36;;;;;;;;;;;;;;;10.64;37.11;100311.97;5117193;28;19923;-62
2023/03/17 11:01:08;;;;;;;;;;;;;;;10.73;36.65;100312.06;5116773;28;20389;-62
2023/03/17 11:03:38;;;;;;;;;;;;;;;10.69;35.88;100315.44;5117923;28;20389;-62
2023/03/17 11:06:08;;;;;;;;;;;;;;;10.64;36.43;100301.75;5117550;28;19923;-62
2023/03/17 11:08:38;;;;;;;;;;;;;;;10.74;36.62;100300.16;5116766;28;20446;-63
2023/03/17 11:11:09;;;;;;;;;;;;;;;10.82;36.69;100295.97;5116417;28;19919;-62
2023/03/17 11:13:37;;;;;;;;;;;;;;;10.83;36.67;100289.13;5116952;28;19919;-62
2023/03/17 11:16:10;;;;;;;;;;;;;;;10.98;36.08;100287.56;5117386;28;19920;-62
2023/03/17 11:18:40;;;;;;;;;;;;;;;11.06;36.14;100302.97;5116214;28;20460;-62
2023/03/17 11:21:10;;;;;;;;;;;;;;;10.97;36.18;100293.50;5116154;28;19923;-62
2023/03/17 11:23:45;;;;;;;;;;;;;;;10.87;35.92;100303.66;5116605;28;19973;-62
2023/03/17 11:26:23;;;;;;;;;;;;;;;10.60;35.36;100300.03;5116841;28;19920;-62
2023/03/17 11:28:57;;;;;;;;;;;;;;;10.62;35.67;100293.25;5116502;28;19926;-62
2023/03/17 11:31:31;;;;;;;;;;;;;;;10.77;35.88;100288.25;5116333;28;19926;-62
2023/03/17 11:34:03;;;;;;;;;;;;;;;10.81;35.39;100289.13;5116724;28;20369;-62
2023/03/17 11:36:39;;;;;;;;;;;;;;;10.73;34.86;100278.84;5116675;28;19973;-63
2023/03/17 11:39:12;;;;;;;;;;;;;;;10.89;35.45;100266.22;5116318;28;20010;-63
2023/03/17 11:41:44;;;;;;;;;;;;;;;10.91;35.14;100269.63;5116650;28;20022;-63
2023/03/17 11:44:37;;;;;;;;;;;;;;;10.94;35.97;100267.13;5115278;28;19926;-62
2023/03/17 11:47:14;;;;;;;;;;;;;;;10.88;36.16;100269.59;5116020;28;19926;-62
2023/03/17 11:49:44;;;;;;;;;;;;;;;10.93;36.02;100250.94;5116090;28;19919;-63
2023/03/17 11:52:20;;;;;;;;;;;;;;;10.98;36.08;100256.06;5115979;28;19920;-62
2023/03/17 11:54:53;;;;;;;;;;;;;;;11.03;36.73;100250.16;5116030;28;19958;-62
2023/03/17 11:57:28;;;;;;;;;;;;;;;10.92;36.53;100261.16;5116238;28;20377;-62
2023/03/17 12:00:00;;;;;;;;;;;;;;;10.93;36.77;100250.94;5116185;28;19919;-62
2023/03/17 12:02:32;;;;;;;;;;;;;;;10.96;37.07;100247.53;5116062;28;20255;-62
2023/03/17 12:05:04;;;;;;;;;;;;;;;11.00;37.00;100239.03;5116094;28;19920;-62
2023/03/17 12:07:36;;;;;;;;;;;;;;;11.16;36.99;100225.50;5116120;28;19920;-63
2023/03/17 12:10:14;;;;;;;;;;;;;;;11.20;36.45;100222.16;5115541;28;19919;-63
2023/03/17 12:12:47;;;;;;;;;;;;;;;11.25;35.97;100220.47;5115949;28;19919;-63
2023/03/17 12:15:19;;;;;;;;;;;;;;;11.27;35.22;100211.97;5115439;28;20350;-63
2023/03/17 12:17:53;;;;;;;;;;;;;;;11.30;34.86;100218.81;5115285;28;19919;-63
2023/03/17 12:20:25;;;;;;;;;;;;;;;11.39;34.98;100223.94;5115377;28;19930;-63
2023/03/17 12:22:55;;;;;;;;;;;;;;;11.53;35.13;100231.66;5114863;28;20266;-64
2023/03/17 12:25:28;;;;;;;;;;;;;;;11.37;35.17;100221.38;5110537;28;20011;-64
2023/03/17 12:28:00;;;;;;;;;;;;;;;11.31;35.18;100225.59;5109709;28;19920;-63
2023/03/17 12:30:31;;;;;;;;;;;;;;;11.25;35.47;100220.47;5115159;28;19920;-63
2023/03/17 12:33:07;;;;;;;;;;;;;;;11.30;35.70;100216.25;5114392;28;19926;-63
2023/03/17 12:35:37;;;;;;;;;;;;;;;11.28;35.93;100215.34;5115601;28;19972;-62
2023/03/17 12:38:09;;;;;;;;;;;;;;;11.28;35.11;100212.81;5110847;28;20433;-62
2023/03/17 12:40:44;;;;;;;;;;;;;;;11.20;35.01;100201.72;5095767;28;19923;-62
2023/03/17 12:43:21;;;;;;;;;;;;;;;11.19;34.57;100210.22;5095044;28;19946;-62
2023/03/17 12:46:01;;;;;;;;;;;;;;;11.32;35.00;100201.78;5094760;28;19919;-62
2023/03/17 12:48:41;;;;;;;;;;;;;;;11.24;34.75;100198.31;5095771;28;19927;-62
2023/03/17 12:51:24;;;;;;;;;;;;;;;11.34;34.59;100190.72;5094531;28;19920;-62
2023/03/17 12:53:53;;;;;;;;;;;;;;;11.40;34.41;100189.84;5092878;28;19920;-62
2023/03/17 12:56:24;;;;;;;;;;;;;;;11.43;34.59;100177.97;5095237;28;20127;-63
2023/03/17 12:58:58;;;;;;;;;;;;;;;11.42;34.32;100172.84;5112479;28;19920;-63